Main page
METAR-TAF:

METAR-TAF

Airports :

Hillsboro Municipal Airport

Hillsboro, Texas, United States

latitude: 32-05N, longitude: 097-05-50W, elevation: 686 ft

Current weather observation

The report was made 20 minutes ago, at 16:55 UTC
Wind 13 mph from the South
Temperature 91°F
Humidity 59%
Pressure 29.95 in. Hg
Visibility: 10 miles
Scattered clouds at a height of 2900 ft
Broken clouds at a height of 4000 ft
Broken clouds at a height of 4800 ft

METAR: KINJ 251655Z AUTO 18011KT 10SM SCT029 BKN040 BKN048 33/24 A2995 RMK AO2 T03250244

Time: 12:15 (17:15 UTC)


TAF: missing

Weather observations and forecasts of more than 4000 airports (METAR and TAF reports).

The available stations are represented by yellow and red dots on the map.

Hover mouse over dot to see the name of the station.

Then click to see weather observations and forecasts.

To change the map : click on the green buttons with a black cross to zoom in, on the green button with a dash to zoom out, or on the green arrows for adjacent maps.


METAR-TAF: